sensor_id;sensor_type;location;lat;lon;timestamp;P1;durP1;ratioP1;P2;durP2;ratioP2
31482;SDS011;18103;52.246;8.052;2024-01-11T00:01:37;22.07;;;8.20;;
31482;SDS011;18103;52.246;8.052;2024-01-11T00:04:05;23.58;;;8.15;;
31482;SDS011;18103;52.246;8.052;2024-01-11T00:06:31;26.70;;;8.63;;
31482;SDS011;18103;52.246;8.052;2024-01-11T00:08:56;18.90;;;7.37;;
31482;SDS011;18103;52.246;8.052;2024-01-11T00:11:21;18.20;;;7.97;;
31482;SDS011;18103;52.246;8.052;2024-01-11T00:13:49;14.90;;;6.15;;
31482;SDS011;18103;52.246;8.052;2024-01-11T00:16:17;19.70;;;9.52;;
31482;SDS011;18103;52.246;8.052;2024-01-11T00:18:42;20.47;;;7.97;;
31482;SDS011;18103;52.246;8.052;2024-01-11T00:21:09;23.80;;;8.02;;
31482;SDS011;18103;52.246;8.052;2024-01-11T00:23:37;17.95;;;7.88;;
31482;SDS011;18103;52.246;8.052;2024-01-11T00:26:05;23.42;;;7.20;;
31482;SDS011;18103;52.246;8.052;2024-01-11T00:28:35;12.57;;;5.65;;
31482;SDS011;18103;52.246;8.052;2024-01-11T00:31:02;16.70;;;7.22;;
31482;SDS011;18103;52.246;8.052;2024-01-11T00:33:30;28.48;;;8.57;;
31482;SDS011;18103;52.246;8.052;2024-01-11T00:35:56;14.20;;;6.63;;
31482;SDS011;18103;52.246;8.052;2024-01-11T00:38:23;16.90;;;8.07;;
31482;SDS011;18103;52.246;8.052;2024-01-11T00:40:53;27.70;;;9.18;;
31482;SDS011;18103;52.246;8.052;2024-01-11T00:43:18;15.70;;;6.97;;
31482;SDS011;18103;52.246;8.052;2024-01-11T00:45:46;20.98;;;8.57;;
31482;SDS011;18103;52.246;8.052;2024-01-11T00:48:12;18.13;;;7.60;;
31482;SDS011;18103;52.246;8.052;2024-01-11T00:50:37;17.37;;;7.30;;
31482;SDS011;18103;52.246;8.052;2024-01-11T00:53:02;23.27;;;7.77;;
31482;SDS011;18103;52.246;8.052;2024-01-11T00:55:28;20.43;;;7.43;;
31482;SDS011;18103;52.246;8.052;2024-01-11T00:57:56;26.35;;;7.13;;
31482;SDS011;18103;52.246;8.052;2024-01-11T01:00:24;23.15;;;8.55;;
31482;SDS011;18103;52.246;8.052;2024-01-11T01:02:51;20.77;;;9.45;;
31482;SDS011;18103;52.246;8.052;2024-01-11T01:05:19;23.08;;;8.35;;
31482;SDS011;18103;52.246;8.052;2024-01-11T01:07:48;13.93;;;6.32;;
31482;SDS011;18103;52.246;8.052;2024-01-11T01:10:18;22.23;;;6.78;;
31482;SDS011;18103;52.246;8.052;2024-01-11T01:12:43;22.10;;;9.30;;
31482;SDS011;18103;52.246;8.052;2024-01-11T01:15:10;23.98;;;8.73;;
31482;SDS011;18103;52.246;8.052;2024-01-11T01:17:36;21.93;;;6.50;;
31482;SDS011;18103;52.246;8.052;2024-01-11T01:20:04;16.90;;;7.38;;
31482;SDS011;18103;52.246;8.052;2024-01-11T01:22:33;17.15;;;5.80;;
31482;SDS011;18103;52.246;8.052;2024-01-11T01:25:01;19.97;;;6.97;;
31482;SDS011;18103;52.246;8.052;2024-01-11T01:27:29;17.17;;;7.05;;
31482;SDS011;18103;52.246;8.052;2024-01-11T01:29:54;16.17;;;6.77;;
31482;SDS011;18103;52.246;8.052;2024-01-11T01:32:22;22.10;;;7.40;;
31482;SDS011;18103;52.246;8.052;2024-01-11T01:34:48;20.33;;;7.90;;
31482;SDS011;18103;52.246;8.052;2024-01-11T01:37:13;12.87;;;6.37;;
31482;SDS011;18103;52.246;8.052;2024-01-11T01:39:38;24.70;;;7.93;;
31482;SDS011;18103;52.246;8.052;2024-01-11T01:42:04;22.53;;;7.57;;
31482;SDS011;18103;52.246;8.052;2024-01-11T01:44:31;20.38;;;7.25;;
31482;SDS011;18103;52.246;8.052;2024-01-11T01:46:56;11.17;;;5.07;;
31482;SDS011;18103;52.246;8.052;2024-01-11T01:49:24;13.97;;;7.13;;
31482;SDS011;18103;52.246;8.052;2024-01-11T01:51:50;17.67;;;7.60;;
31482;SDS011;18103;52.246;8.052;2024-01-11T01:54:16;16.70;;;6.60;;
31482;SDS011;18103;52.246;8.052;2024-01-11T01:56:43;24.65;;;7.88;;
31482;SDS011;18103;52.246;8.052;2024-01-11T01:59:09;23.00;;;7.43;;
31482;SDS011;18103;52.246;8.052;2024-01-11T02:01:35;19.30;;;7.43;;
31482;SDS011;18103;52.246;8.052;2024-01-11T02:04:04;15.25;;;5.78;;
31482;SDS011;18103;52.246;8.052;2024-01-11T02:06:32;23.95;;;7.63;;
31482;SDS011;18103;52.246;8.052;2024-01-11T02:08:59;17.98;;;6.45;;
31482;SDS011;18103;52.246;8.052;2024-01-11T02:11:28;11.60;;;5.55;;
31482;SDS011;18103;52.246;8.052;2024-01-11T02:13:53;19.93;;;7.30;;
31482;SDS011;18103;52.246;8.052;2024-01-11T02:16:25;15.15;;;7.68;;
31482;SDS011;18103;52.246;8.052;2024-01-11T02:18:53;16.88;;;7.90;;
31482;SDS011;18103;52.246;8.052;2024-01-11T02:21:19;22.10;;;6.60;;
31482;SDS011;18103;52.246;8.052;2024-01-11T02:26:27;17.33;;;7.07;;
31482;SDS011;18103;52.246;8.052;2024-01-11T02:28:53;16.13;;;7.00;;
31482;SDS011;18103;52.246;8.052;2024-01-11T02:31:21;14.27;;;5.97;;
31482;SDS011;18103;52.246;8.052;2024-01-11T02:33:47;22.67;;;6.80;;
31482;SDS011;18103;52.246;8.052;2024-01-11T02:36:13;22.40;;;6.60;;
31482;SDS011;18103;52.246;8.052;2024-01-11T02:38:38;20.07;;;7.00;;
31482;SDS011;18103;52.246;8.052;2024-01-11T02:41:07;15.63;;;5.93;;
31482;SDS011;18103;52.246;8.052;2024-01-11T02:43:33;15.47;;;6.57;;
31482;SDS011;18103;52.246;8.052;2024-01-11T02:46:01;14.95;;;5.68;;
31482;SDS011;18103;52.246;8.052;2024-01-11T02:48:28;16.15;;;6.90;;
31482;SDS011;18103;52.246;8.052;2024-01-11T02:50:57;22.75;;;7.15;;
31482;SDS011;18103;52.246;8.052;2024-01-11T02:53:22;12.87;;;6.60;;
31482;SDS011;18103;52.246;8.052;2024-01-11T02:55:48;10.48;;;5.82;;
31482;SDS011;18103;52.246;8.052;2024-01-11T02:58:17;17.17;;;5.55;;
31482;SDS011;18103;52.246;8.052;2024-01-11T03:00:44;12.30;;;5.75;;
31482;SDS011;18103;52.246;8.052;2024-01-11T03:03:12;19.67;;;7.07;;
31482;SDS011;18103;52.246;8.052;2024-01-11T03:05:40;18.93;;;6.57;;
31482;SDS011;18103;52.246;8.052;2024-01-11T03:08:07;15.40;;;5.43;;
31482;SDS011;18103;52.246;8.052;2024-01-11T03:10:33;16.87;;;7.13;;
31482;SDS011;18103;52.246;8.052;2024-01-11T03:13:07;18.73;;;5.57;;
31482;SDS011;18103;52.246;8.052;2024-01-11T03:15:34;18.55;;;6.00;;
31482;SDS011;18103;52.246;8.052;2024-01-11T03:18:00;14.33;;;7.50;;
31482;SDS011;18103;52.246;8.052;2024-01-11T03:20:28;11.68;;;5.28;;
31482;SDS011;18103;52.246;8.052;2024-01-11T03:22:54;15.60;;;3.43;;
31482;SDS011;18103;52.246;8.052;2024-01-11T03:25:19;18.30;;;6.33;;
31482;SDS011;18103;52.246;8.052;2024-01-11T03:27:45;17.57;;;5.43;;
31482;SDS011;18103;52.246;8.052;2024-01-11T03:30:11;12.80;;;5.23;;
31482;SDS011;18103;52.246;8.052;2024-01-11T03:32:42;13.88;;;5.22;;
31482;SDS011;18103;52.246;8.052;2024-01-11T03:35:09;18.98;;;6.88;;
31482;SDS011;18103;52.246;8.052;2024-01-11T03:37:37;13.47;;;5.60;;
31482;SDS011;18103;52.246;8.052;2024-01-11T03:40:05;12.00;;;4.60;;
31482;SDS011;18103;52.246;8.052;2024-01-11T03:42:31;9.27;;;5.00;;
31482;SDS011;18103;52.246;8.052;2024-01-11T03:44:59;15.07;;;5.73;;
31482;SDS011;18103;52.246;8.052;2024-01-11T03:47:24;14.75;;;5.85;;
31482;SDS011;18103;52.246;8.052;2024-01-11T03:49:54;20.55;;;6.05;;
31482;SDS011;18103;52.246;8.052;2024-01-11T03:52:24;11.23;;;5.63;;
31482;SDS011;18103;52.246;8.052;2024-01-11T03:54:50;15.55;;;6.18;;
31482;SDS011;18103;52.246;8.052;2024-01-11T03:57:19;15.05;;;6.32;;
31482;SDS011;18103;52.246;8.052;2024-01-11T03:59:45;16.30;;;6.15;;
31482;SDS011;18103;52.246;8.052;2024-01-11T04:02:12;16.90;;;5.97;;
31482;SDS011;18103;52.246;8.052;2024-01-11T04:04:38;7.03;;;4.20;;
31482;SDS011;18103;52.246;8.052;2024-01-11T04:07:03;12.93;;;5.30;;
31482;SDS011;18103;52.246;8.052;2024-01-11T04:09:28;13.57;;;5.40;;
31482;SDS011;18103;52.246;8.052;2024-01-11T04:11:54;9.37;;;4.97;;
31482;SDS011;18103;52.246;8.052;2024-01-11T04:14:19;11.03;;;5.10;;
31482;SDS011;18103;52.246;8.052;2024-01-11T04:16:47;10.43;;;5.00;;
31482;SDS011;18103;52.246;8.052;2024-01-11T04:19:12;13.30;;;5.53;;
31482;SDS011;18103;52.246;8.052;2024-01-11T04:21:37;15.37;;;5.80;;
31482;SDS011;18103;52.246;8.052;2024-01-11T04:24:06;10.32;;;4.93;;
31482;SDS011;18103;52.246;8.052;2024-01-11T04:26:33;14.52;;;6.28;;
31482;SDS011;18103;52.246;8.052;2024-01-11T04:28:59;14.13;;;5.57;;
31482;SDS011;18103;52.246;8.052;2024-01-11T04:31:25;17.13;;;6.77;;
31482;SDS011;18103;52.246;8.052;2024-01-11T04:33:56;11.73;;;5.45;;
31482;SDS011;18103;52.246;8.052;2024-01-11T04:36:23;18.20;;;5.68;;
31482;SDS011;18103;52.246;8.052;2024-01-11T04:38:49;13.77;;;5.77;;
31482;SDS011;18103;52.246;8.052;2024-01-11T04:41:16;15.50;;;5.80;;
31482;SDS011;18103;52.246;8.052;2024-01-11T04:43:46;13.23;;;5.55;;
31482;SDS011;18103;52.246;8.052;2024-01-11T04:46:13;16.30;;;5.07;;
31482;SDS011;18103;52.246;8.052;2024-01-11T04:48:45;12.20;;;5.03;;
31482;SDS011;18103;52.246;8.052;2024-01-11T04:51:11;20.48;;;6.28;;
31482;SDS011;18103;52.246;8.052;2024-01-11T04:53:40;16.13;;;5.75;;
31482;SDS011;18103;52.246;8.052;2024-01-11T04:56:09;10.80;;;4.38;;
31482;SDS011;18103;52.246;8.052;2024-01-11T04:58:41;11.07;;;5.45;;
31482;SDS011;18103;52.246;8.052;2024-01-11T05:03:45;11.25;;;4.88;;
31482;SDS011;18103;52.246;8.052;2024-01-11T05:06:17;14.23;;;4.88;;
31482;SDS011;18103;52.246;8.052;2024-01-11T05:08:46;10.38;;;5.40;;
31482;SDS011;18103;52.246;8.052;2024-01-11T05:11:18;15.68;;;5.35;;
31482;SDS011;18103;52.246;8.052;2024-01-11T05:13:45;15.23;;;6.45;;
31482;SDS011;18103;52.246;8.052;2024-01-11T05:16:46;8.55;;;4.50;;
31482;SDS011;18103;52.246;8.052;2024-01-11T05:19:05;13.48;;;5.47;;
31482;SDS011;18103;52.246;8.052;2024-01-11T05:21:33;16.35;;;5.90;;
31482;SDS011;18103;52.246;8.052;2024-01-11T05:23:58;14.23;;;4.60;;
31482;SDS011;18103;52.246;8.052;2024-01-11T05:26:24;13.47;;;5.30;;
31482;SDS011;18103;52.246;8.052;2024-01-11T05:28:49;13.40;;;5.77;;
31482;SDS011;18103;52.246;8.052;2024-01-11T05:31:14;8.17;;;4.80;;
31482;SDS011;18103;52.246;8.052;2024-01-11T05:33:43;10.60;;;5.60;;
31482;SDS011;18103;52.246;8.052;2024-01-11T05:36:11;14.95;;;5.78;;
31482;SDS011;18103;52.246;8.052;2024-01-11T05:38:37;13.17;;;5.50;;
31482;SDS011;18103;52.246;8.052;2024-01-11T05:41:06;10.27;;;4.43;;
31482;SDS011;18103;52.246;8.052;2024-01-11T05:43:34;12.77;;;4.97;;
31482;SDS011;18103;52.246;8.052;2024-01-11T05:46:01;8.65;;;4.97;;
31482;SDS011;18103;52.246;8.052;2024-01-11T05:48:27;20.80;;;6.93;;
31482;SDS011;18103;52.246;8.052;2024-01-11T05:50:54;18.08;;;7.35;;
31482;SDS011;18103;52.246;8.052;2024-01-11T05:53:22;17.35;;;6.50;;
31482;SDS011;18103;52.246;8.052;2024-01-11T05:55:49;18.83;;;7.20;;
31482;SDS011;18103;52.246;8.052;2024-01-11T05:58:17;12.70;;;5.45;;
31482;SDS011;18103;52.246;8.052;2024-01-11T06:00:45;18.52;;;6.10;;
31482;SDS011;18103;52.246;8.052;2024-01-11T06:03:13;33.20;;;6.93;;
31482;SDS011;18103;52.246;8.052;2024-01-11T06:05:39;14.07;;;7.22;;
31482;SDS011;18103;52.246;8.052;2024-01-11T06:08:04;14.20;;;6.27;;
31482;SDS011;18103;52.246;8.052;2024-01-11T06:10:30;19.67;;;6.77;;
31482;SDS011;18103;52.246;8.052;2024-01-11T06:12:56;17.27;;;5.70;;
31482;SDS011;18103;52.246;8.052;2024-01-11T06:15:21;11.30;;;5.47;;
31482;SDS011;18103;52.246;8.052;2024-01-11T06:17:47;15.53;;;4.97;;
31482;SDS011;18103;52.246;8.052;2024-01-11T06:20:12;16.00;;;6.57;;
31482;SDS011;18103;52.246;8.052;2024-01-11T06:22:40;6.78;;;3.47;;
31482;SDS011;18103;52.246;8.052;2024-01-11T06:25:08;11.48;;;4.95;;
31482;SDS011;18103;52.246;8.052;2024-01-11T06:27:33;19.33;;;7.23;;
31482;SDS011;18103;52.246;8.052;2024-01-11T06:30:01;13.27;;;6.68;;
31482;SDS011;18103;52.246;8.052;2024-01-11T06:32:26;13.23;;;5.70;;
31482;SDS011;18103;52.246;8.052;2024-01-11T06:34:52;12.40;;;5.47;;
31482;SDS011;18103;52.246;8.052;2024-01-11T06:37:17;13.43;;;6.40;;
31482;SDS011;18103;52.246;8.052;2024-01-11T06:39:42;11.13;;;5.27;;
31482;SDS011;18103;52.246;8.052;2024-01-11T06:42:08;17.97;;;6.27;;
31482;SDS011;18103;52.246;8.052;2024-01-11T06:44:33;16.37;;;7.03;;
31482;SDS011;18103;52.246;8.052;2024-01-11T06:46:58;10.63;;;6.17;;
31482;SDS011;18103;52.246;8.052;2024-01-11T06:49:28;19.20;;;6.72;;
31482;SDS011;18103;52.246;8.052;2024-01-11T06:51:54;23.58;;;7.80;;
31482;SDS011;18103;52.246;8.052;2024-01-11T06:54:21;13.90;;;5.40;;
31482;SDS011;18103;52.246;8.052;2024-01-11T06:56:47;11.53;;;5.97;;
31482;SDS011;18103;52.246;8.052;2024-01-11T06:59:18;9.48;;;5.65;;
31482;SDS011;18103;52.246;8.052;2024-01-11T07:01:45;10.63;;;5.95;;
31482;SDS011;18103;52.246;8.052;2024-01-11T07:04:12;9.48;;;4.65;;
31482;SDS011;18103;52.246;8.052;2024-01-11T07:06:37;13.80;;;5.37;;
31482;SDS011;18103;52.246;8.052;2024-01-11T07:09:02;19.83;;;6.70;;
31482;SDS011;18103;52.246;8.052;2024-01-11T07:11:30;11.48;;;7.45;;
31482;SDS011;18103;52.246;8.052;2024-01-11T07:14:00;12.50;;;4.70;;
31482;SDS011;18103;52.246;8.052;2024-01-11T07:16:26;22.43;;;6.40;;
31482;SDS011;18103;52.246;8.052;2024-01-11T07:18:51;8.07;;;4.70;;
31482;SDS011;18103;52.246;8.052;2024-01-11T07:21:22;16.95;;;6.00;;
31482;SDS011;18103;52.246;8.052;2024-01-11T07:23:54;18.17;;;6.95;;
31482;SDS011;18103;52.246;8.052;2024-01-11T07:26:20;8.73;;;5.20;;
31482;SDS011;18103;52.246;8.052;2024-01-11T07:28:50;13.30;;;7.47;;
31482;SDS011;18103;52.246;8.052;2024-01-11T07:31:19;9.90;;;4.32;;
31482;SDS011;18103;52.246;8.052;2024-01-11T07:33:45;10.43;;;5.93;;
31482;SDS011;18103;52.246;8.052;2024-01-11T07:36:13;16.27;;;6.82;;
31482;SDS011;18103;52.246;8.052;2024-01-11T07:38:44;15.15;;;7.18;;
31482;SDS011;18103;52.246;8.052;2024-01-11T07:41:09;20.77;;;7.18;;
31482;SDS011;18103;52.246;8.052;2024-01-11T07:43:38;15.70;;;5.75;;
31482;SDS011;18103;52.246;8.052;2024-01-11T07:46:04;18.42;;;6.45;;
31482;SDS011;18103;52.246;8.052;2024-01-11T07:48:31;21.30;;;6.93;;
31482;SDS011;18103;52.246;8.052;2024-01-11T07:50:59;20.95;;;6.38;;
31482;SDS011;18103;52.246;8.052;2024-01-11T07:53:24;13.40;;;6.43;;
31482;SDS011;18103;52.246;8.052;2024-01-11T07:55:50;19.48;;;7.20;;
31482;SDS011;18103;52.246;8.052;2024-01-11T07:58:18;19.33;;;7.35;;
31482;SDS011;18103;52.246;8.052;2024-01-11T08:00:47;11.93;;;6.15;;
31482;SDS011;18103;52.246;8.052;2024-01-11T08:03:13;16.50;;;6.28;;
31482;SDS011;18103;52.246;8.052;2024-01-11T08:05:41;12.65;;;5.95;;
31482;SDS011;18103;52.246;8.052;2024-01-11T08:08:08;18.13;;;7.30;;
31482;SDS011;18103;52.246;8.052;2024-01-11T08:10:35;20.45;;;7.82;;
31482;SDS011;18103;52.246;8.052;2024-01-11T08:13:01;23.77;;;7.17;;
31482;SDS011;18103;52.246;8.052;2024-01-11T08:15:29;18.45;;;6.85;;
31482;SDS011;18103;52.246;8.052;2024-01-11T08:17:57;12.60;;;7.05;;
31482;SDS011;18103;52.246;8.052;2024-01-11T08:20:25;19.17;;;7.20;;
31482;SDS011;18103;52.246;8.052;2024-01-11T08:22:50;13.63;;;6.53;;
31482;SDS011;18103;52.246;8.052;2024-01-11T08:25:16;19.20;;;7.93;;
31482;SDS011;18103;52.246;8.052;2024-01-11T08:27:44;17.80;;;8.02;;
31482;SDS011;18103;52.246;8.052;2024-01-11T08:30:09;16.53;;;7.30;;
31482;SDS011;18103;52.246;8.052;2024-01-11T08:32:37;9.63;;;6.20;;
31482;SDS011;18103;52.246;8.052;2024-01-11T08:35:05;16.67;;;8.00;;
31482;SDS011;18103;52.246;8.052;2024-01-11T08:37:31;19.98;;;8.35;;
31482;SDS011;18103;52.246;8.052;2024-01-11T08:39:59;24.77;;;7.57;;
31482;SDS011;18103;52.246;8.052;2024-01-11T08:42:24;25.57;;;9.13;;
31482;SDS011;18103;52.246;8.052;2024-01-11T08:44:52;12.93;;;7.55;;
31482;SDS011;18103;52.246;8.052;2024-01-11T08:47:18;22.90;;;8.30;;
31482;SDS011;18103;52.246;8.052;2024-01-11T08:49:46;16.00;;;6.10;;
31482;SDS011;18103;52.246;8.052;2024-01-11T08:52:11;15.83;;;6.60;;
31482;SDS011;18103;52.246;8.052;2024-01-11T08:54:37;21.97;;;8.47;;
31482;SDS011;18103;52.246;8.052;2024-01-11T08:57:05;18.52;;;6.50;;
31482;SDS011;18103;52.246;8.052;2024-01-11T08:59:33;21.95;;;7.55;;
31482;SDS011;18103;52.246;8.052;2024-01-11T09:02:00;18.88;;;7.30;;
31482;SDS011;18103;52.246;8.052;2024-01-11T09:04:26;20.60;;;7.33;;
31482;SDS011;18103;52.246;8.052;2024-01-11T09:06:54;25.75;;;9.57;;
31482;SDS011;18103;52.246;8.052;2024-01-11T09:09:21;17.27;;;8.10;;
31482;SDS011;18103;52.246;8.052;2024-01-11T09:11:48;16.88;;;7.13;;
31482;SDS011;18103;52.246;8.052;2024-01-11T09:14:14;16.93;;;7.07;;
31482;SDS011;18103;52.246;8.052;2024-01-11T09:16:42;27.87;;;9.70;;
31482;SDS011;18103;52.246;8.052;2024-01-11T09:19:11;21.15;;;6.13;;
31482;SDS011;18103;52.246;8.052;2024-01-11T09:21:37;20.93;;;7.10;;
31482;SDS011;18103;52.246;8.052;2024-01-11T09:24:02;23.27;;;9.47;;
31482;SDS011;18103;52.246;8.052;2024-01-11T09:26:30;28.80;;;10.77;;
31482;SDS011;18103;52.246;8.052;2024-01-11T09:28:57;20.33;;;9.83;;
31482;SDS011;18103;52.246;8.052;2024-01-11T09:31:23;24.73;;;9.30;;
31482;SDS011;18103;52.246;8.052;2024-01-11T09:33:50;31.60;;;10.80;;
31482;SDS011;18103;52.246;8.052;2024-01-11T09:36:16;26.87;;;8.57;;
31482;SDS011;18103;52.246;8.052;2024-01-11T09:38:44;22.33;;;8.88;;
31482;SDS011;18103;52.246;8.052;2024-01-11T09:41:13;22.35;;;8.02;;
31482;SDS011;18103;52.246;8.052;2024-01-11T09:43:39;29.43;;;8.53;;
31482;SDS011;18103;52.246;8.052;2024-01-11T09:46:06;25.20;;;9.27;;
31482;SDS011;18103;52.246;8.052;2024-01-11T09:48:35;17.60;;;7.87;;
31482;SDS011;18103;52.246;8.052;2024-01-11T09:51:02;20.75;;;8.30;;
31482;SDS011;18103;52.246;8.052;2024-01-11T09:53:31;23.50;;;8.40;;
31482;SDS011;18103;52.246;8.052;2024-01-11T09:55:58;28.40;;;8.07;;
31482;SDS011;18103;52.246;8.052;2024-01-11T09:58:26;15.05;;;7.18;;
31482;SDS011;18103;52.246;8.052;2024-01-11T10:00:54;24.33;;;8.27;;
31482;SDS011;18103;52.246;8.052;2024-01-11T10:03:22;36.65;;;8.98;;
31482;SDS011;18103;52.246;8.052;2024-01-11T10:05:49;23.90;;;9.00;;
31482;SDS011;18103;52.246;8.052;2024-01-11T10:08:21;20.15;;;6.93;;
31482;SDS011;18103;52.246;8.052;2024-01-11T10:10:52;18.60;;;6.90;;
31482;SDS011;18103;52.246;8.052;2024-01-11T10:13:25;24.00;;;8.85;;
31482;SDS011;18103;52.246;8.052;2024-01-11T10:16:03;17.65;;;7.38;;
31482;SDS011;18103;52.246;8.052;2024-01-11T10:18:30;17.05;;;7.75;;
31482;SDS011;18103;52.246;8.052;2024-01-11T10:20:56;24.90;;;8.53;;
31482;SDS011;18103;52.246;8.052;2024-01-11T10:23:22;29.27;;;8.80;;
31482;SDS011;18103;52.246;8.052;2024-01-11T10:25:50;38.00;;;10.60;;
31482;SDS011;18103;52.246;8.052;2024-01-11T10:28:21;25.73;;;9.05;;
31482;SDS011;18103;52.246;8.052;2024-01-11T10:30:46;33.17;;;10.25;;
31482;SDS011;18103;52.246;8.052;2024-01-11T10:33:12;20.90;;;8.13;;
31482;SDS011;18103;52.246;8.052;2024-01-11T10:35:37;24.13;;;8.93;;
31482;SDS011;18103;52.246;8.052;2024-01-11T10:38:04;21.50;;;8.73;;
31482;SDS011;18103;52.246;8.052;2024-01-11T10:40:34;20.33;;;8.10;;
31482;SDS011;18103;52.246;8.052;2024-01-11T10:43:00;22.90;;;10.20;;
31482;SDS011;18103;52.246;8.052;2024-01-11T10:45:30;22.48;;;10.30;;
31482;SDS011;18103;52.246;8.052;2024-01-11T10:48:03;33.47;;;9.65;;
31482;SDS011;18103;52.246;8.052;2024-01-11T10:50:35;28.20;;;8.88;;
31482;SDS011;18103;52.246;8.052;2024-01-11T10:53:11;54.97;;;15.63;;
31482;SDS011;18103;52.246;8.052;2024-01-11T10:55:59;34.60;;;12.55;;
31482;SDS011;18103;52.246;8.052;2024-01-11T10:58:26;37.15;;;13.15;;
31482;SDS011;18103;52.246;8.052;2024-01-11T11:00:53;40.13;;;12.73;;
31482;SDS011;18103;52.246;8.052;2024-01-11T11:03:22;33.17;;;10.52;;
31482;SDS011;18103;52.246;8.052;2024-01-11T11:05:50;31.73;;;10.32;;
31482;SDS011;18103;52.246;8.052;2024-01-11T11:08:20;38.63;;;11.70;;
31482;SDS011;18103;52.246;8.052;2024-01-11T11:10:47;27.90;;;9.93;;
31482;SDS011;18103;52.246;8.052;2024-01-11T11:13:16;29.55;;;11.27;;
31482;SDS011;18103;52.246;8.052;2024-01-11T11:15:46;29.33;;;11.48;;
31482;SDS011;18103;52.246;8.052;2024-01-11T11:18:13;21.48;;;8.68;;
31482;SDS011;18103;52.246;8.052;2024-01-11T11:20:40;27.58;;;11.10;;
31482;SDS011;18103;52.246;8.052;2024-01-11T11:23:09;30.10;;;13.15;;
31482;SDS011;18103;52.246;8.052;2024-01-11T11:25:38;29.05;;;12.27;;
31482;SDS011;18103;52.246;8.052;2024-01-11T11:28:07;30.83;;;11.23;;
31482;SDS011;18103;52.246;8.052;2024-01-11T11:30:33;37.30;;;11.93;;
31482;SDS011;18103;52.246;8.052;2024-01-11T11:35:48;29.88;;;10.80;;
31482;SDS011;18103;52.246;8.052;2024-01-11T11:38:20;27.15;;;11.15;;
31482;SDS011;18103;52.246;8.052;2024-01-11T11:40:47;22.38;;;10.07;;
31482;SDS011;18103;52.246;8.052;2024-01-11T11:43:19;27.85;;;9.88;;
31482;SDS011;18103;52.246;8.052;2024-01-11T11:45:48;32.53;;;10.07;;
31482;SDS011;18103;52.246;8.052;2024-01-11T11:53:33;28.90;;;11.70;;
31482;SDS011;18103;52.246;8.052;2024-01-11T11:56:01;30.23;;;9.32;;
31482;SDS011;18103;52.246;8.052;2024-01-11T11:58:27;29.92;;;10.55;;
31482;SDS011;18103;52.246;8.052;2024-01-11T12:00:57;33.20;;;10.10;;
31482;SDS011;18103;52.246;8.052;2024-01-11T12:03:32;34.40;;;10.65;;
31482;SDS011;18103;52.246;8.052;2024-01-11T12:06:02;23.60;;;8.88;;
31482;SDS011;18103;52.246;8.052;2024-01-11T12:08:30;32.35;;;9.60;;
31482;SDS011;18103;52.246;8.052;2024-01-11T12:10:58;31.25;;;10.63;;
31482;SDS011;18103;52.246;8.052;2024-01-11T12:13:24;28.27;;;9.32;;
31482;SDS011;18103;52.246;8.052;2024-01-11T12:15:50;39.80;;;10.77;;
31482;SDS011;18103;52.246;8.052;2024-01-11T12:18:15;31.60;;;10.97;;
31482;SDS011;18103;52.246;8.052;2024-01-11T12:20:41;19.40;;;9.33;;
31482;SDS011;18103;52.246;8.052;2024-01-11T12:23:06;33.30;;;11.70;;
31482;SDS011;18103;52.246;8.052;2024-01-11T12:25:32;24.43;;;7.87;;
31482;SDS011;18103;52.246;8.052;2024-01-11T12:27:58;15.17;;;6.43;;
31482;SDS011;18103;52.246;8.052;2024-01-11T12:30:25;23.73;;;7.40;;
31482;SDS011;18103;52.246;8.052;2024-01-11T12:32:54;22.55;;;8.55;;
31482;SDS011;18103;52.246;8.052;2024-01-11T12:35:20;28.20;;;9.00;;
31482;SDS011;18103;52.246;8.052;2024-01-11T12:37:58;21.77;;;7.07;;
31482;SDS011;18103;52.246;8.052;2024-01-11T12:40:27;25.90;;;9.68;;
31482;SDS011;18103;52.246;8.052;2024-01-11T12:42:53;28.20;;;10.40;;
31482;SDS011;18103;52.246;8.052;2024-01-11T12:45:20;24.52;;;8.20;;
31482;SDS011;18103;52.246;8.052;2024-01-11T12:47:51;27.80;;;8.55;;
31482;SDS011;18103;52.246;8.052;2024-01-11T12:50:16;26.50;;;8.43;;
31482;SDS011;18103;52.246;8.052;2024-01-11T12:52:42;24.92;;;10.18;;
31482;SDS011;18103;52.246;8.052;2024-01-11T12:55:19;22.52;;;8.82;;
31482;SDS011;18103;52.246;8.052;2024-01-11T12:57:45;29.50;;;8.48;;
31482;SDS011;18103;52.246;8.052;2024-01-11T13:00:13;30.08;;;11.15;;
31482;SDS011;18103;52.246;8.052;2024-01-11T13:02:41;20.00;;;8.93;;
31482;SDS011;18103;52.246;8.052;2024-01-11T13:05:09;34.63;;;9.95;;
31482;SDS011;18103;52.246;8.052;2024-01-11T13:07:36;32.07;;;10.17;;
31482;SDS011;18103;52.246;8.052;2024-01-11T13:10:02;28.58;;;10.35;;
31482;SDS011;18103;52.246;8.052;2024-01-11T13:12:28;26.75;;;10.50;;
31482;SDS011;18103;52.246;8.052;2024-01-11T13:14:54;19.60;;;8.50;;
31482;SDS011;18103;52.246;8.052;2024-01-11T13:17:20;26.40;;;10.77;;
31482;SDS011;18103;52.246;8.052;2024-01-11T13:19:49;24.55;;;9.35;;
31482;SDS011;18103;52.246;8.052;2024-01-11T13:22:17;27.00;;;8.43;;
31482;SDS011;18103;52.246;8.052;2024-01-11T13:24:43;26.60;;;11.68;;
31482;SDS011;18103;52.246;8.052;2024-01-11T13:27:10;30.55;;;12.45;;
31482;SDS011;18103;52.246;8.052;2024-01-11T13:29:36;31.10;;;10.57;;
31482;SDS011;18103;52.246;8.052;2024-01-11T13:32:01;29.93;;;12.23;;
31482;SDS011;18103;52.246;8.052;2024-01-11T13:34:27;33.70;;;11.87;;
31482;SDS011;18103;52.246;8.052;2024-01-11T13:36:52;31.47;;;10.67;;
31482;SDS011;18103;52.246;8.052;2024-01-11T13:39:18;34.73;;;10.70;;
31482;SDS011;18103;52.246;8.052;2024-01-11T13:41:45;27.40;;;10.32;;
31482;SDS011;18103;52.246;8.052;2024-01-11T13:44:15;26.27;;;9.60;;
31482;SDS011;18103;52.246;8.052;2024-01-11T13:46:43;34.17;;;11.15;;
31482;SDS011;18103;52.246;8.052;2024-01-11T13:49:09;39.13;;;12.23;;
31482;SDS011;18103;52.246;8.052;2024-01-11T13:51:36;39.38;;;12.05;;
31482;SDS011;18103;52.246;8.052;2024-01-11T13:54:02;38.60;;;11.20;;
31482;SDS011;18103;52.246;8.052;2024-01-11T13:56:31;40.47;;;12.43;;
31482;SDS011;18103;52.246;8.052;2024-01-11T13:58:59;27.42;;;10.02;;
31482;SDS011;18103;52.246;8.052;2024-01-11T14:01:24;25.07;;;11.37;;
31482;SDS011;18103;52.246;8.052;2024-01-11T14:03:52;26.08;;;9.43;;
31482;SDS011;18103;52.246;8.052;2024-01-11T14:06:17;31.57;;;10.97;;
31482;SDS011;18103;52.246;8.052;2024-01-11T14:08:46;37.92;;;11.50;;
31482;SDS011;18103;52.246;8.052;2024-01-11T14:11:14;32.10;;;11.73;;
31482;SDS011;18103;52.246;8.052;2024-01-11T14:13:39;30.20;;;11.60;;
31482;SDS011;18103;52.246;8.052;2024-01-11T14:16:05;37.37;;;12.17;;
31482;SDS011;18103;52.246;8.052;2024-01-11T14:18:33;35.53;;;12.30;;
31482;SDS011;18103;52.246;8.052;2024-01-11T14:21:00;31.67;;;12.05;;
31482;SDS011;18103;52.246;8.052;2024-01-11T14:23:28;26.40;;;9.75;;
31482;SDS011;18103;52.246;8.052;2024-01-11T14:25:53;29.40;;;10.33;;
31482;SDS011;18103;52.246;8.052;2024-01-11T14:28:21;25.42;;;9.00;;
31482;SDS011;18103;52.246;8.052;2024-01-11T14:30:47;26.50;;;9.10;;
31482;SDS011;18103;52.246;8.052;2024-01-11T14:33:13;27.08;;;9.23;;
31482;SDS011;18103;52.246;8.052;2024-01-11T14:35:39;34.00;;;10.00;;
31482;SDS011;18103;52.246;8.052;2024-01-11T14:38:04;25.93;;;9.13;;
31482;SDS011;18103;52.246;8.052;2024-01-11T14:40:32;26.63;;;9.65;;
31482;SDS011;18103;52.246;8.052;2024-01-11T14:42:57;24.47;;;8.67;;
31482;SDS011;18103;52.246;8.052;2024-01-11T14:45:25;25.33;;;8.70;;
31482;SDS011;18103;52.246;8.052;2024-01-11T14:47:52;31.10;;;9.05;;